sensor_id;sensor_type;location;lat;lon;timestamp;temperature;humidity
52107;DHT22;38105;52.968;5.974;2023-02-28T00:00:45;4.00;99.90
52107;DHT22;38105;52.968;5.974;2023-02-28T00:03:11;4.00;99.90
52107;DHT22;38105;52.968;5.974;2023-02-28T00:05:37;4.00;99.90
52107;DHT22;38105;52.968;5.974;2023-02-28T00:08:02;4.00;99.90
52107;DHT22;38105;52.968;5.974;2023-02-28T00:10:30;4.00;99.90
52107;DHT22;38105;52.968;5.974;2023-02-28T00:13:02;4.20;99.90
52107;DHT22;38105;52.968;5.974;2023-02-28T00:15:28;4.20;99.90
52107;DHT22;38105;52.968;5.974;2023-02-28T00:17:54;4.20;99.90
52107;DHT22;38105;52.968;5.974;2023-02-28T00:20:20;4.20;99.90
52107;DHT22;38105;52.968;5.974;2023-02-28T00:22:48;4.00;99.90
52107;DHT22;38105;52.968;5.974;2023-02-28T00:25:16;4.10;99.90
52107;DHT22;38105;52.968;5.974;2023-02-28T00:27:42;4.00;99.90
52107;DHT22;38105;52.968;5.974;2023-02-28T00:30:11;3.90;99.90
52107;DHT22;38105;52.968;5.974;2023-02-28T00:32:37;3.90;99.90
52107;DHT22;38105;52.968;5.974;2023-02-28T00:35:04;4.10;99.90
52107;DHT22;38105;52.968;5.974;2023-02-28T00:37:29;3.90;99.90
52107;DHT22;38105;52.968;5.974;2023-02-28T00:39:56;4.00;99.90
52107;DHT22;38105;52.968;5.974;2023-02-28T00:42:21;3.90;99.90
52107;DHT22;38105;52.968;5.974;2023-02-28T00:44:47;4.00;99.90
52107;DHT22;38105;52.968;5.974;2023-02-28T00:47:13;4.10;99.90
52107;DHT22;38105;52.968;5.974;2023-02-28T00:49:38;3.90;99.90
52107;DHT22;38105;52.968;5.974;2023-02-28T00:52:04;3.90;99.90
52107;DHT22;38105;52.968;5.974;2023-02-28T00:54:30;3.90;99.90
52107;DHT22;38105;52.968;5.974;2023-02-28T00:56:55;4.10;99.90
52107;DHT22;38105;52.968;5.974;2023-02-28T00:59:21;4.00;99.90
52107;DHT22;38105;52.968;5.974;2023-02-28T01:01:47;4.10;99.90
52107;DHT22;38105;52.968;5.974;2023-02-28T01:04:14;4.00;99.90
52107;DHT22;38105;52.968;5.974;2023-02-28T01:06:40;4.10;99.90
52107;DHT22;38105;52.968;5.974;2023-02-28T01:09:07;4.00;99.90
52107;DHT22;38105;52.968;5.974;2023-02-28T01:11:33;4.00;99.90
52107;DHT22;38105;52.968;5.974;2023-02-28T01:14:00;4.10;99.90
52107;DHT22;38105;52.968;5.974;2023-02-28T01:16:27;4.10;99.90
52107;DHT22;38105;52.968;5.974;2023-02-28T01:18:53;4.00;99.90
52107;DHT22;38105;52.968;5.974;2023-02-28T01:21:20;4.10;99.90
52107;DHT22;38105;52.968;5.974;2023-02-28T01:23:47;4.00;99.90
52107;DHT22;38105;52.968;5.974;2023-02-28T01:26:22;4.00;99.90
52107;DHT22;38105;52.968;5.974;2023-02-28T01:28:49;4.20;99.90
52107;DHT22;38105;52.968;5.974;2023-02-28T01:31:15;4.00;99.90
52107;DHT22;38105;52.968;5.974;2023-02-28T01:33:41;4.00;99.90
52107;DHT22;38105;52.968;5.974;2023-02-28T01:36:15;4.00;99.90
52107;DHT22;38105;52.968;5.974;2023-02-28T01:38:41;4.10;99.90
52107;DHT22;38105;52.968;5.974;2023-02-28T01:41:07;4.20;99.90
52107;DHT22;38105;52.968;5.974;2023-02-28T01:46:07;4.00;99.90
52107;DHT22;38105;52.968;5.974;2023-02-28T01:48:40;4.20;99.90
52107;DHT22;38105;52.968;5.974;2023-02-28T01:51:11;4.10;99.90
52107;DHT22;38105;52.968;5.974;2023-02-28T01:53:42;4.00;99.90
52107;DHT22;38105;52.968;5.974;2023-02-28T01:56:11;4.10;99.90
52107;DHT22;38105;52.968;5.974;2023-02-28T01:58:37;4.00;99.90
52107;DHT22;38105;52.968;5.974;2023-02-28T02:01:04;4.10;99.90
52107;DHT22;38105;52.968;5.974;2023-02-28T02:03:30;4.00;99.90
52107;DHT22;38105;52.968;5.974;2023-02-28T02:05:56;4.00;99.90
52107;DHT22;38105;52.968;5.974;2023-02-28T02:08:25;4.20;99.90
52107;DHT22;38105;52.968;5.974;2023-02-28T02:10:56;4.20;99.90
52107;DHT22;38105;52.968;5.974;2023-02-28T02:13:34;4.00;99.90
52107;DHT22;38105;52.968;5.974;2023-02-28T02:18:47;4.10;99.90
52107;DHT22;38105;52.968;5.974;2023-02-28T02:21:16;3.90;99.90
52107;DHT22;38105;52.968;5.974;2023-02-28T02:26:45;4.00;99.90
52107;DHT22;38105;52.968;5.974;2023-02-28T02:40:07;4.20;99.90
52107;DHT22;38105;52.968;5.974;2023-02-28T02:45:16;4.20;99.90
52107;DHT22;38105;52.968;5.974;2023-02-28T02:47:44;4.20;99.90
52107;DHT22;38105;52.968;5.974;2023-02-28T02:50:26;4.20;99.90
52107;DHT22;38105;52.968;5.974;2023-02-28T02:52:57;4.10;99.90
52107;DHT22;38105;52.968;5.974;2023-02-28T02:55:24;4.30;99.90
52107;DHT22;38105;52.968;5.974;2023-02-28T02:58:02;4.10;99.90
52107;DHT22;38105;52.968;5.974;2023-02-28T03:00:43;4.30;99.90
52107;DHT22;38105;52.968;5.974;2023-02-28T03:03:12;4.30;99.90
52107;DHT22;38105;52.968;5.974;2023-02-28T03:05:44;4.10;99.90
52107;DHT22;38105;52.968;5.974;2023-02-28T03:08:11;4.10;99.90
52107;DHT22;38105;52.968;5.974;2023-02-28T03:10:40;4.10;99.90
52107;DHT22;38105;52.968;5.974;2023-02-28T03:21:36;4.20;99.90
52107;DHT22;38105;52.968;5.974;2023-02-28T03:24:11;4.10;99.90
52107;DHT22;38105;52.968;5.974;2023-02-28T03:26:47;4.10;99.90
52107;DHT22;38105;52.968;5.974;2023-02-28T03:29:33;4.30;99.90
52107;DHT22;38105;52.968;5.974;2023-02-28T03:32:06;4.30;99.90
52107;DHT22;38105;52.968;5.974;2023-02-28T03:34:38;4.30;99.90
52107;DHT22;38105;52.968;5.974;2023-02-28T03:37:13;4.10;99.90
52107;DHT22;38105;52.968;5.974;2023-02-28T03:39:47;4.20;99.90
52107;DHT22;38105;52.968;5.974;2023-02-28T03:42:18;4.30;99.90
52107;DHT22;38105;52.968;5.974;2023-02-28T03:44:46;4.10;99.90
52107;DHT22;38105;52.968;5.974;2023-02-28T03:47:24;4.40;99.90
52107;DHT22;38105;52.968;5.974;2023-02-28T03:49:57;4.30;99.90
52107;DHT22;38105;52.968;5.974;2023-02-28T03:52:28;4.10;99.90
52107;DHT22;38105;52.968;5.974;2023-02-28T03:55:00;4.00;99.90
52107;DHT22;38105;52.968;5.974;2023-02-28T04:00:37;3.90;99.90
52107;DHT22;38105;52.968;5.974;2023-02-28T04:03:04;4.00;99.90
52107;DHT22;38105;52.968;5.974;2023-02-28T04:05:31;3.70;99.90
52107;DHT22;38105;52.968;5.974;2023-02-28T04:08:05;3.90;99.90
52107;DHT22;38105;52.968;5.974;2023-02-28T04:10:31;4.10;99.90
52107;DHT22;38105;52.968;5.974;2023-02-28T04:12:57;3.90;99.90
52107;DHT22;38105;52.968;5.974;2023-02-28T04:15:22;4.00;99.90
52107;DHT22;38105;52.968;5.974;2023-02-28T04:17:50;3.70;99.90
52107;DHT22;38105;52.968;5.974;2023-02-28T04:20:16;3.60;99.90
52107;DHT22;38105;52.968;5.974;2023-02-28T04:22:41;3.50;99.90
52107;DHT22;38105;52.968;5.974;2023-02-28T04:25:07;3.30;99.90
52107;DHT22;38105;52.968;5.974;2023-02-28T04:27:33;3.60;99.90
52107;DHT22;38105;52.968;5.974;2023-02-28T04:29:59;3.60;99.90
52107;DHT22;38105;52.968;5.974;2023-02-28T04:32:25;3.20;99.90
52107;DHT22;38105;52.968;5.974;2023-02-28T04:34:51;3.60;99.90
52107;DHT22;38105;52.968;5.974;2023-02-28T04:37:16;3.40;99.90
52107;DHT22;38105;52.968;5.974;2023-02-28T04:39:42;3.50;99.90
52107;DHT22;38105;52.968;5.974;2023-02-28T04:42:08;3.40;99.90
52107;DHT22;38105;52.968;5.974;2023-02-28T04:44:34;3.20;99.90
52107;DHT22;38105;52.968;5.974;2023-02-28T04:47:00;3.30;99.90
52107;DHT22;38105;52.968;5.974;2023-02-28T04:49:26;3.30;99.90
52107;DHT22;38105;52.968;5.974;2023-02-28T04:51:51;3.40;99.90
52107;DHT22;38105;52.968;5.974;2023-02-28T04:54:18;3.30;99.90
52107;DHT22;38105;52.968;5.974;2023-02-28T04:56:44;2.80;99.90
52107;DHT22;38105;52.968;5.974;2023-02-28T04:59:09;2.90;99.90
52107;DHT22;38105;52.968;5.974;2023-02-28T05:01:35;2.80;99.90
52107;DHT22;38105;52.968;5.974;2023-02-28T05:04:03;2.80;99.90
52107;DHT22;38105;52.968;5.974;2023-02-28T05:06:31;2.80;99.90
52107;DHT22;38105;52.968;5.974;2023-02-28T05:08:57;2.70;99.90
52107;DHT22;38105;52.968;5.974;2023-02-28T05:11:26;3.10;99.90
52107;DHT22;38105;52.968;5.974;2023-02-28T05:13:54;3.10;99.90
52107;DHT22;38105;52.968;5.974;2023-02-28T05:16:20;2.60;99.90
52107;DHT22;38105;52.968;5.974;2023-02-28T05:18:46;2.90;99.90
52107;DHT22;38105;52.968;5.974;2023-02-28T05:21:38;3.00;99.90
52107;DHT22;38105;52.968;5.974;2023-02-28T05:24:12;2.60;99.90
52107;DHT22;38105;52.968;5.974;2023-02-28T05:26:40;2.80;99.90
52107;DHT22;38105;52.968;5.974;2023-02-28T05:29:06;2.70;99.90
52107;DHT22;38105;52.968;5.974;2023-02-28T05:31:32;2.40;99.90
52107;DHT22;38105;52.968;5.974;2023-02-28T05:33:58;2.70;99.90
52107;DHT22;38105;52.968;5.974;2023-02-28T05:36:24;2.10;99.90
52107;DHT22;38105;52.968;5.974;2023-02-28T05:38:50;2.10;99.90
52107;DHT22;38105;52.968;5.974;2023-02-28T05:41:17;2.20;99.90
52107;DHT22;38105;52.968;5.974;2023-02-28T05:43:45;2.50;99.90
52107;DHT22;38105;52.968;5.974;2023-02-28T05:46:11;2.40;99.90
52107;DHT22;38105;52.968;5.974;2023-02-28T05:48:38;2.20;99.90
52107;DHT22;38105;52.968;5.974;2023-02-28T05:51:05;1.90;99.90
52107;DHT22;38105;52.968;5.974;2023-02-28T05:53:32;2.30;99.90
52107;DHT22;38105;52.968;5.974;2023-02-28T05:55:58;2.10;99.90
52107;DHT22;38105;52.968;5.974;2023-02-28T05:58:24;2.20;99.90
52107;DHT22;38105;52.968;5.974;2023-02-28T06:00:54;1.80;99.90
52107;DHT22;38105;52.968;5.974;2023-02-28T06:03:20;1.80;99.90
52107;DHT22;38105;52.968;5.974;2023-02-28T06:05:45;2.10;99.90
52107;DHT22;38105;52.968;5.974;2023-02-28T06:08:11;1.80;99.90
52107;DHT22;38105;52.968;5.974;2023-02-28T06:10:37;2.20;99.90
52107;DHT22;38105;52.968;5.974;2023-02-28T06:13:03;2.10;99.90
52107;DHT22;38105;52.968;5.974;2023-02-28T06:15:29;2.10;99.90
52107;DHT22;38105;52.968;5.974;2023-02-28T06:17:56;1.70;99.90
52107;DHT22;38105;52.968;5.974;2023-02-28T06:20:23;1.80;99.90
52107;DHT22;38105;52.968;5.974;2023-02-28T06:22:49;2.10;99.90
52107;DHT22;38105;52.968;5.974;2023-02-28T06:25:16;2.00;99.90
52107;DHT22;38105;52.968;5.974;2023-02-28T06:27:42;1.60;99.90
52107;DHT22;38105;52.968;5.974;2023-02-28T06:30:09;1.60;99.90
52107;DHT22;38105;52.968;5.974;2023-02-28T06:32:35;2.00;99.90
52107;DHT22;38105;52.968;5.974;2023-02-28T06:35:02;1.50;99.90
52107;DHT22;38105;52.968;5.974;2023-02-28T06:37:27;2.00;99.90
52107;DHT22;38105;52.968;5.974;2023-02-28T06:39:54;1.50;99.90
52107;DHT22;38105;52.968;5.974;2023-02-28T06:42:22;1.40;99.90
52107;DHT22;38105;52.968;5.974;2023-02-28T06:44:50;1.40;99.90
52107;DHT22;38105;52.968;5.974;2023-02-28T06:47:16;1.60;99.90
52107;DHT22;38105;52.968;5.974;2023-02-28T06:49:42;1.90;99.90
52107;DHT22;38105;52.968;5.974;2023-02-28T06:52:08;1.60;99.90
52107;DHT22;38105;52.968;5.974;2023-02-28T06:54:36;1.50;99.90
52107;DHT22;38105;52.968;5.974;2023-02-28T06:57:02;1.80;99.90
52107;DHT22;38105;52.968;5.974;2023-02-28T06:59:28;1.90;99.90
52107;DHT22;38105;52.968;5.974;2023-02-28T07:01:53;1.40;99.90
52107;DHT22;38105;52.968;5.974;2023-02-28T07:04:20;1.80;99.90
52107;DHT22;38105;52.968;5.974;2023-02-28T07:06:46;1.80;99.90
52107;DHT22;38105;52.968;5.974;2023-02-28T07:09:12;2.00;99.90
52107;DHT22;38105;52.968;5.974;2023-02-28T07:11:39;1.50;99.90
52107;DHT22;38105;52.968;5.974;2023-02-28T07:14:06;1.60;99.90
52107;DHT22;38105;52.968;5.974;2023-02-28T07:16:32;1.50;99.90
52107;DHT22;38105;52.968;5.974;2023-02-28T07:18:58;2.00;99.90
52107;DHT22;38105;52.968;5.974;2023-02-28T07:21:23;2.00;99.90
52107;DHT22;38105;52.968;5.974;2023-02-28T07:23:49;1.50;99.90
52107;DHT22;38105;52.968;5.974;2023-02-28T07:26:15;2.10;99.90
52107;DHT22;38105;52.968;5.974;2023-02-28T07:28:42;1.40;99.90
52107;DHT22;38105;52.968;5.974;2023-02-28T07:31:08;1.70;99.90
52107;DHT22;38105;52.968;5.974;2023-02-28T07:33:34;1.80;99.90
52107;DHT22;38105;52.968;5.974;2023-02-28T07:36:01;2.00;99.90
52107;DHT22;38105;52.968;5.974;2023-02-28T07:38:27;2.20;99.90
52107;DHT22;38105;52.968;5.974;2023-02-28T07:40:52;2.00;99.90
52107;DHT22;38105;52.968;5.974;2023-02-28T07:43:18;2.10;99.90
52107;DHT22;38105;52.968;5.974;2023-02-28T07:45:43;2.00;99.90
52107;DHT22;38105;52.968;5.974;2023-02-28T07:48:09;2.20;99.90
52107;DHT22;38105;52.968;5.974;2023-02-28T07:50:35;1.70;99.90
52107;DHT22;38105;52.968;5.974;2023-02-28T07:53:00;1.90;99.90
52107;DHT22;38105;52.968;5.974;2023-02-28T07:55:26;2.00;99.90
52107;DHT22;38105;52.968;5.974;2023-02-28T07:57:52;1.90;99.90
52107;DHT22;38105;52.968;5.974;2023-02-28T08:00:17;1.90;99.90
52107;DHT22;38105;52.968;5.974;2023-02-28T08:02:43;2.20;99.90
52107;DHT22;38105;52.968;5.974;2023-02-28T08:05:09;2.10;99.90
52107;DHT22;38105;52.968;5.974;2023-02-28T08:07:34;2.00;99.90
52107;DHT22;38105;52.968;5.974;2023-02-28T08:10:00;2.20;99.90
52107;DHT22;38105;52.968;5.974;2023-02-28T08:12:25;2.00;99.90
52107;DHT22;38105;52.968;5.974;2023-02-28T08:14:51;2.50;99.90
52107;DHT22;38105;52.968;5.974;2023-02-28T08:17:17;2.50;99.90
52107;DHT22;38105;52.968;5.974;2023-02-28T08:19:44;2.50;99.90
52107;DHT22;38105;52.968;5.974;2023-02-28T08:22:10;2.20;99.90
52107;DHT22;38105;52.968;5.974;2023-02-28T08:24:35;2.50;99.90
52107;DHT22;38105;52.968;5.974;2023-02-28T08:27:01;2.50;99.90
52107;DHT22;38105;52.968;5.974;2023-02-28T08:29:26;2.50;99.90
52107;DHT22;38105;52.968;5.974;2023-02-28T08:31:52;2.30;99.90
52107;DHT22;38105;52.968;5.974;2023-02-28T08:34:18;2.30;99.90
52107;DHT22;38105;52.968;5.974;2023-02-28T08:36:43;2.40;99.90
52107;DHT22;38105;52.968;5.974;2023-02-28T08:39:11;2.50;99.90
52107;DHT22;38105;52.968;5.974;2023-02-28T08:41:36;2.50;99.90
52107;DHT22;38105;52.968;5.974;2023-02-28T08:44:02;2.70;99.90
52107;DHT22;38105;52.968;5.974;2023-02-28T08:46:27;2.80;99.90
52107;DHT22;38105;52.968;5.974;2023-02-28T08:48:54;2.40;99.90
52107;DHT22;38105;52.968;5.974;2023-02-28T08:51:20;2.50;99.90
52107;DHT22;38105;52.968;5.974;2023-02-28T08:53:52;2.60;99.90
52107;DHT22;38105;52.968;5.974;2023-02-28T08:56:18;2.70;99.90
52107;DHT22;38105;52.968;5.974;2023-02-28T08:58:43;2.90;99.90
52107;DHT22;38105;52.968;5.974;2023-02-28T09:01:14;2.90;99.90
52107;DHT22;38105;52.968;5.974;2023-02-28T09:03:40;3.00;99.90
52107;DHT22;38105;52.968;5.974;2023-02-28T09:06:09;3.10;99.90
52107;DHT22;38105;52.968;5.974;2023-02-28T09:08:35;3.40;99.90
52107;DHT22;38105;52.968;5.974;2023-02-28T09:11:00;3.20;99.90
52107;DHT22;38105;52.968;5.974;2023-02-28T09:13:27;3.30;99.90
52107;DHT22;38105;52.968;5.974;2023-02-28T09:15:53;3.40;99.90
52107;DHT22;38105;52.968;5.974;2023-02-28T09:18:19;3.30;99.90
52107;DHT22;38105;52.968;5.974;2023-02-28T09:20:45;3.60;99.90
52107;DHT22;38105;52.968;5.974;2023-02-28T09:23:11;3.50;99.90
52107;DHT22;38105;52.968;5.974;2023-02-28T09:25:45;3.80;99.90
52107;DHT22;38105;52.968;5.974;2023-02-28T09:28:11;4.00;99.90
52107;DHT22;38105;52.968;5.974;2023-02-28T09:30:36;4.20;99.90
52107;DHT22;38105;52.968;5.974;2023-02-28T09:33:02;4.30;99.90
52107;DHT22;38105;52.968;5.974;2023-02-28T09:35:28;4.30;99.90
52107;DHT22;38105;52.968;5.974;2023-02-28T09:37:53;4.20;99.90
52107;DHT22;38105;52.968;5.974;2023-02-28T09:40:21;4.10;99.90
52107;DHT22;38105;52.968;5.974;2023-02-28T09:42:47;4.20;99.90
52107;DHT22;38105;52.968;5.974;2023-02-28T09:48:00;4.20;99.90
52107;DHT22;38105;52.968;5.974;2023-02-28T09:50:37;4.20;99.90
52107;DHT22;38105;52.968;5.974;2023-02-28T09:53:20;4.30;99.90
52107;DHT22;38105;52.968;5.974;2023-02-28T09:55:55;4.70;99.90
52107;DHT22;38105;52.968;5.974;2023-02-28T09:58:28;5.30;99.90
52107;DHT22;38105;52.968;5.974;2023-02-28T10:01:03;5.70;99.90
52107;DHT22;38105;52.968;5.974;2023-02-28T10:03:36;6.40;99.90
52107;DHT22;38105;52.968;5.974;2023-02-28T10:06:13;6.80;99.90
52107;DHT22;38105;52.968;5.974;2023-02-28T10:08:52;7.10;99.90
52107;DHT22;38105;52.968;5.974;2023-02-28T10:11:22;7.80;99.90
52107;DHT22;38105;52.968;5.974;2023-02-28T10:16:39;8.30;99.90
52107;DHT22;38105;52.968;5.974;2023-02-28T10:21:39;8.80;99.90
52107;DHT22;38105;52.968;5.974;2023-02-28T10:27:01;9.30;99.90
52107;DHT22;38105;52.968;5.974;2023-02-28T10:29:31;9.60;99.90
52107;DHT22;38105;52.968;5.974;2023-02-28T10:32:00;9.80;99.90
52107;DHT22;38105;52.968;5.974;2023-02-28T10:34:26;9.60;99.90
52107;DHT22;38105;52.968;5.974;2023-02-28T10:36:53;9.90;99.90
52107;DHT22;38105;52.968;5.974;2023-02-28T10:39:41;9.70;99.90
52107;DHT22;38105;52.968;5.974;2023-02-28T10:42:23;9.60;99.90
52107;DHT22;38105;52.968;5.974;2023-02-28T10:45:14;9.50;99.90
52107;DHT22;38105;52.968;5.974;2023-02-28T10:47:56;9.30;99.90
52107;DHT22;38105;52.968;5.974;2023-02-28T10:53:16;9.00;99.90
52107;DHT22;38105;52.968;5.974;2023-02-28T10:55:42;8.80;99.90
52107;DHT22;38105;52.968;5.974;2023-02-28T10:58:24;8.50;99.90
52107;DHT22;38105;52.968;5.974;2023-02-28T11:00:51;8.20;99.90
52107;DHT22;38105;52.968;5.974;2023-02-28T11:03:34;8.20;99.90
52107;DHT22;38105;52.968;5.974;2023-02-28T11:06:06;8.30;99.90
52107;DHT22;38105;52.968;5.974;2023-02-28T11:08:32;8.40;99.90
52107;DHT22;38105;52.968;5.974;2023-02-28T11:11:01;8.20;99.90
52107;DHT22;38105;52.968;5.974;2023-02-28T11:13:32;8.30;99.90
52107;DHT22;38105;52.968;5.974;2023-02-28T11:16:02;8.20;99.90
52107;DHT22;38105;52.968;5.974;2023-02-28T11:18:33;8.10;99.90
52107;DHT22;38105;52.968;5.974;2023-02-28T11:21:03;8.30;99.90
52107;DHT22;38105;52.968;5.974;2023-02-28T11:23:31;8.10;99.90
52107;DHT22;38105;52.968;5.974;2023-02-28T11:26:01;8.10;99.90
52107;DHT22;38105;52.968;5.974;2023-02-28T11:28:28;7.90;99.90
52107;DHT22;38105;52.968;5.974;2023-02-28T11:31:04;7.90;99.90
52107;DHT22;38105;52.968;5.974;2023-02-28T11:33:41;7.80;99.90
52107;DHT22;38105;52.968;5.974;2023-02-28T11:36:12;7.80;99.90
52107;DHT22;38105;52.968;5.974;2023-02-28T11:38:38;8.00;99.90
52107;DHT22;38105;52.968;5.974;2023-02-28T11:44:17;8.20;99.90
52107;DHT22;38105;52.968;5.974;2023-02-28T11:46:49;8.10;99.90
52107;DHT22;38105;52.968;5.974;2023-02-28T11:52:50;7.90;99.90
52107;DHT22;38105;52.968;5.974;2023-02-28T11:55:42;7.90;99.90
52107;DHT22;38105;52.968;5.974;2023-02-28T12:01:03;8.00;99.90
52107;DHT22;38105;52.968;5.974;2023-02-28T12:03:55;8.20;99.90
52107;DHT22;38105;52.968;5.974;2023-02-28T12:12:03;8.50;99.90
52107;DHT22;38105;52.968;5.974;2023-02-28T12:14:54;8.40;99.90
52107;DHT22;38105;52.968;5.974;2023-02-28T12:22:55;8.50;99.90
52107;DHT22;38105;52.968;5.974;2023-02-28T12:28:33;8.20;99.90
52107;DHT22;38105;52.968;5.974;2023-02-28T12:31:35;8.10;99.90
52107;DHT22;38105;52.968;5.974;2023-02-28T12:34:39;8.00;99.90
52107;DHT22;38105;52.968;5.974;2023-02-28T12:36:58;8.00;99.90
52107;DHT22;38105;52.968;5.974;2023-02-28T12:39:29;8.20;99.90
52107;DHT22;38105;52.968;5.974;2023-02-28T12:42:01;8.20;99.90
52107;DHT22;38105;52.968;5.974;2023-02-28T12:44:34;8.40;99.90
52107;DHT22;38105;52.968;5.974;2023-02-28T12:47:13;8.30;99.90
52107;DHT22;38105;52.968;5.974;2023-02-28T12:50:04;8.20;99.90
52107;DHT22;38105;52.968;5.974;2023-02-28T12:52:59;8.10;99.90
52107;DHT22;38105;52.968;5.974;2023-02-28T12:58:26;7.80;99.90
52107;DHT22;38105;52.968;5.974;2023-02-28T13:01:23;7.80;99.90
52107;DHT22;38105;52.968;5.974;2023-02-28T13:09:26;7.80;99.90
52107;DHT22;38105;52.968;5.974;2023-02-28T13:11:53;7.80;99.90
52107;DHT22;38105;52.968;5.974;2023-02-28T13:14:35;7.80;99.90
52107;DHT22;38105;52.968;5.974;2023-02-28T13:27:53;7.60;99.90
52107;DHT22;38105;52.968;5.974;2023-02-28T13:38:47;7.50;99.90
52107;DHT22;38105;52.968;5.974;2023-02-28T13:49:27;7.70;99.90
52107;DHT22;38105;52.968;5.974;2023-02-28T13:52:16;7.80;99.90
52107;DHT22;38105;52.968;5.974;2023-02-28T13:55:02;7.90;99.90
52107;DHT22;38105;52.968;5.974;2023-02-28T14:00:42;7.90;99.90
52107;DHT22;38105;52.968;5.974;2023-02-28T14:06:15;7.90;99.90
52107;DHT22;38105;52.968;5.974;2023-02-28T14:11:39;7.60;99.90
52107;DHT22;38105;52.968;5.974;2023-02-28T14:14:08;7.40;99.90
52107;DHT22;38105;52.968;5.974;2023-02-28T14:16:44;7.40;99.90
52107;DHT22;38105;52.968;5.974;2023-02-28T14:19:27;7.30;99.90
52107;DHT22;38105;52.968;5.974;2023-02-28T14:28:18;6.90;99.90
52107;DHT22;38105;52.968;5.974;2023-02-28T14:33:59;6.70;99.90
52107;DHT22;38105;52.968;5.974;2023-02-28T14:36:37;6.90;99.90
52107;DHT22;38105;52.968;5.974;2023-02-28T14:39:14;7.00;99.90
52107;DHT22;38105;52.968;5.974;2023-02-28T14:41:43;7.10;99.90
52107;DHT22;38105;52.968;5.974;2023-02-28T14:46:41;7.20;99.90
52107;DHT22;38105;52.968;5.974;2023-02-28T14:49:20;7.40;99.90
52107;DHT22;38105;52.968;5.974;2023-02-28T14:51:49;7.40;99.90
52107;DHT22;38105;52.968;5.974;2023-02-28T14:54:19;7.40;99.90
52107;DHT22;38105;52.968;5.974;2023-02-28T14:56:50;7.50;99.90
52107;DHT22;38105;52.968;5.974;2023-02-28T14:59:25;7.40;99.90
52107;DHT22;38105;52.968;5.974;2023-02-28T15:01:51;7.40;99.90
52107;DHT22;38105;52.968;5.974;2023-02-28T15:04:26;7.40;99.90
52107;DHT22;38105;52.968;5.974;2023-02-28T15:07:13;7.60;99.90
52107;DHT22;38105;52.968;5.974;2023-02-28T15:09:39;7.60;99.90
52107;DHT22;38105;52.968;5.974;2023-02-28T15:12:05;7.60;99.90
52107;DHT22;38105;52.968;5.974;2023-02-28T15:14:31;7.60;99.90
52107;DHT22;38105;52.968;5.974;2023-02-28T15:17:06;7.50;99.90
52107;DHT22;38105;52.968;5.974;2023-02-28T15:19:39;7.40;99.90
52107;DHT22;38105;52.968;5.974;2023-02-28T15:22:14;7.40;99.90
52107;DHT22;38105;52.968;5.974;2023-02-28T15:24:50;7.40;99.90
52107;DHT22;38105;52.968;5.974;2023-02-28T15:27:24;7.30;99.90
52107;DHT22;38105;52.968;5.974;2023-02-28T15:29:55;7.30;99.90
52107;DHT22;38105;52.968;5.974;2023-02-28T15:34:47;7.10;99.90
52107;DHT22;38105;52.968;5.974;2023-02-28T15:39:57;7.10;99.90
52107;DHT22;38105;52.968;5.974;2023-02-28T15:42:30;7.10;99.90
52107;DHT22;38105;52.968;5.974;2023-02-28T15:44:56;7.10;99.90
52107;DHT22;38105;52.968;5.974;2023-02-28T15:47:24;7.00;99.90
52107;DHT22;38105;52.968;5.974;2023-02-28T15:49:58;7.00;99.90
52107;DHT22;38105;52.968;5.974;2023-02-28T15:52:32;7.00;99.90
52107;DHT22;38105;52.968;5.974;2023-02-28T15:55:20;7.00;99.90
52107;DHT22;38105;52.968;5.974;2023-02-28T15:57:50;7.00;99.90
52107;DHT22;38105;52.968;5.974;2023-02-28T16:00:20;7.00;99.90
52107;DHT22;38105;52.968;5.974;2023-02-28T16:02:47;7.00;99.90
52107;DHT22;38105;52.968;5.974;2023-02-28T16:05:22;6.90;99.90
52107;DHT22;38105;52.968;5.974;2023-02-28T16:08:18;6.80;99.90
52107;DHT22;38105;52.968;5.974;2023-02-28T16:10:43;6.80;99.90
52107;DHT22;38105;52.968;5.974;2023-02-28T16:13:11;6.70;99.90
52107;DHT22;38105;52.968;5.974;2023-02-28T16:15:42;6.60;99.90
52107;DHT22;38105;52.968;5.974;2023-02-28T16:18:11;6.60;99.90
52107;DHT22;38105;52.968;5.974;2023-02-28T16:20:37;6.50;99.90
52107;DHT22;38105;52.968;5.974;2023-02-28T16:23:03;6.40;99.90
52107;DHT22;38105;52.968;5.974;2023-02-28T16:25:35;6.40;99.90
52107;DHT22;38105;52.968;5.974;2023-02-28T16:28:01;6.30;99.90
52107;DHT22;38105;52.968;5.974;2023-02-28T16:30:28;6.30;99.90
52107;DHT22;38105;52.968;5.974;2023-02-28T16:32:57;6.20;99.90
52107;DHT22;38105;52.968;5.974;2023-02-28T16:35:23;6.10;99.90
52107;DHT22;38105;52.968;5.974;2023-02-28T16:37:51;6.10;99.90
52107;DHT22;38105;52.968;5.974;2023-02-28T16:40:19;6.00;99.90
52107;DHT22;38105;52.968;5.974;2023-02-28T16:42:48;5.90;99.90
52107;DHT22;38105;52.968;5.974;2023-02-28T16:45:25;5.90;99.90
52107;DHT22;38105;52.968;5.974;2023-02-28T16:47:51;5.80;99.90
52107;DHT22;38105;52.968;5.974;2023-02-28T16:50:19;5.80;99.90
52107;DHT22;38105;52.968;5.974;2023-02-28T16:52:45;5.70;99.90
52107;DHT22;38105;52.968;5.974;2023-02-28T16:55:11;5.60;99.90
52107;DHT22;38105;52.968;5.974;2023-02-28T16:57:37;5.50;99.90
52107;DHT22;38105;52.968;5.974;2023-02-28T17:00:05;5.50;99.90
52107;DHT22;38105;52.968;5.974;2023-02-28T17:02:33;5.40;99.90
52107;DHT22;38105;52.968;5.974;2023-02-28T17:04:59;5.30;99.90
52107;DHT22;38105;52.968;5.974;2023-02-28T17:07:25;5.30;99.90
52107;DHT22;38105;52.968;5.974;2023-02-28T17:09:50;5.20;99.90
52107;DHT22;38105;52.968;5.974;2023-02-28T17:12:16;5.10;99.90
52107;DHT22;38105;52.968;5.974;2023-02-28T17:14:42;5.00;99.90
52107;DHT22;38105;52.968;5.974;2023-02-28T17:17:14;5.00;99.90
52107;DHT22;38105;52.968;5.974;2023-02-28T17:19:41;4.90;99.90
52107;DHT22;38105;52.968;5.974;2023-02-28T17:22:09;4.80;99.90
52107;DHT22;38105;52.968;5.974;2023-02-28T17:24:35;4.70;99.90
52107;DHT22;38105;52.968;5.974;2023-02-28T17:27:01;4.60;99.90
52107;DHT22;38105;52.968;5.974;2023-02-28T17:29:27;4.60;99.90
52107;DHT22;38105;52.968;5.974;2023-02-28T17:31:53;4.50;99.90
52107;DHT22;38105;52.968;5.974;2023-02-28T17:34:19;4.40;99.90
52107;DHT22;38105;52.968;5.974;2023-02-28T17:36:46;4.40;99.90
52107;DHT22;38105;52.968;5.974;2023-02-28T17:39:15;4.30;99.90
52107;DHT22;38105;52.968;5.974;2023-02-28T17:41:41;4.20;99.90
52107;DHT22;38105;52.968;5.974;2023-02-28T17:44:08;4.20;99.90
52107;DHT22;38105;52.968;5.974;2023-02-28T17:46:34;4.10;99.90
52107;DHT22;38105;52.968;5.974;2023-02-28T17:49:00;4.10;99.90
52107;DHT22;38105;52.968;5.974;2023-02-28T17:51:26;4.00;99.90
52107;DHT22;38105;52.968;5.974;2023-02-28T17:53:52;4.00;99.90
52107;DHT22;38105;52.968;5.974;2023-02-28T17:56:23;3.90;99.90
52107;DHT22;38105;52.968;5.974;2023-02-28T17:58:49;3.90;99.90
52107;DHT22;38105;52.968;5.974;2023-02-28T18:01:16;3.80;99.90
52107;DHT22;38105;52.968;5.974;2023-02-28T18:03:42;3.70;99.90
52107;DHT22;38105;52.968;5.974;2023-02-28T18:06:17;3.70;99.90
52107;DHT22;38105;52.968;5.974;2023-02-28T18:08:44;3.60;99.90
52107;DHT22;38105;52.968;5.974;2023-02-28T18:11:10;3.60;99.90